Time;durP1;ratioP1;P1;durP2;ratioP2;P2;SDS_P1;SDS_P2;PMS_P1;PMS_P2;Temp;Humidity;BMP_temperature;BMP_pressure;BME280_temperature;BME280_humidity;BME280_pressure;Samples;Min_cycle;Max_cycle;Signal;HPM_P1;HPM_P2
2023/11/05 00:03:32;;;;;;;;;;;;;;;8.11;100.00;92732.91;10554441;28;5148;-71
2023/11/05 00:08:34;;;;;;;;;;;;;;;8.13;100.00;92714.59;10555568;28;2561;-71
2023/11/05 00:13:37;;;;;;;;;;;;;;;8.11;100.00;92714.16;10563929;27;2640;-71
2023/11/05 00:18:39;;;;;;;;;;;;;;;8.11;100.00;92692.75;10563143;27;2774;-70
2023/11/05 00:23:42;;;;;;;;;;;;;;;8.11;100.00;92681.28;10570836;27;2578;-68
2023/11/05 00:28:44;;;;;;;;;;;;;;;8.01;100.00;92679.81;10568186;27;3465;-70
2023/11/05 00:33:47;;;;;;;;;;;;;;;8.04;100.00;92684.50;10560215;27;2674;-74
2023/11/05 00:38:50;;;;;;;;;;;;;;;8.03;100.00;92671.47;10559895;27;2575;-69
2023/11/05 00:43:53;;;;;;;;;;;;;;;8.02;100.00;92665.34;10570928;27;2639;-70
2023/11/05 00:48:56;;;;;;;;;;;;;;;8.05;100.00;92674.59;10563913;27;2619;-71
2023/11/05 00:53:59;;;;;;;;;;;;;;;7.97;100.00;92673.59;10564525;27;2675;-71
2023/11/05 00:59:02;;;;;;;;;;;;;;;8.06;100.00;92676.94;10569443;27;2636;-69
2023/11/05 01:04:04;;;;;;;;;;;;;;;8.00;100.00;92654.19;10568970;27;5341;-70
2023/11/05 01:09:07;;;;;;;;;;;;;;;8.01;100.00;92634.34;10563196;27;2608;-71
2023/11/05 01:14:09;;;;;;;;;;;;;;;7.99;100.00;92639.25;10573977;27;2585;-70
2023/11/05 01:19:12;;;;;;;;;;;;;;;7.96;100.00;92650.63;10568198;27;2607;-72
2023/11/05 01:24:16;;;;;;;;;;;;;;;7.97;100.00;92676.25;10564152;27;2613;-71
2023/11/05 01:29:18;;;;;;;;;;;;;;;7.95;100.00;92691.88;10542676;27;2595;-70
2023/11/05 01:34:21;;;;;;;;;;;;;;;7.94;100.00;92676.91;10565937;27;2592;-71
2023/11/05 01:39:23;;;;;;;;;;;;;;;7.96;100.00;92681.94;10570295;27;2552;-70
2023/11/05 01:44:25;;;;;;;;;;;;;;;7.90;100.00;92656.53;10563988;27;2581;-70
2023/11/05 01:49:28;;;;;;;;;;;;;;;7.85;100.00;92652.16;10565138;27;2648;-69
2023/11/05 01:54:30;;;;;;;;;;;;;;;7.75;100.00;92650.69;10567579;27;2593;-72
2023/11/05 01:59:33;;;;;;;;;;;;;;;7.75;100.00;92660.59;10570500;27;2675;-70
2023/11/05 02:04:35;;;;;;;;;;;;;;;7.76;100.00;92643.44;10562251;27;5896;-69
2023/11/05 02:09:38;;;;;;;;;;;;;;;7.73;100.00;92638.78;10541487;27;2670;-71
2023/11/05 02:14:41;;;;;;;;;;;;;;;7.68;100.00;92639.75;10559959;27;2618;-69
2023/11/05 02:19:43;;;;;;;;;;;;;;;7.67;100.00;92624.06;10554038;27;2606;-69
2023/11/05 02:24:45;;;;;;;;;;;;;;;7.63;100.00;92615.13;10557511;27;2712;-69
2023/11/05 02:29:48;;;;;;;;;;;;;;;7.61;100.00;92596.75;10558258;27;2727;-70
2023/11/05 02:34:50;;;;;;;;;;;;;;;7.64;100.00;92584.63;10561126;27;2673;-69
2023/11/05 02:39:53;;;;;;;;;;;;;;;7.59;100.00;92599.78;10563164;27;2577;-74
2023/11/05 02:44:55;;;;;;;;;;;;;;;7.52;100.00;92580.81;10561153;27;2631;-70
2023/11/05 02:49:58;;;;;;;;;;;;;;;7.41;100.00;92570.88;10564254;27;2651;-73
2023/11/05 02:55:01;;;;;;;;;;;;;;;7.37;100.00;92580.66;10543427;27;2619;-72
2023/11/05 03:00:04;;;;;;;;;;;;;;;7.29;100.00;92561.72;10554976;27;2620;-71
2023/11/05 03:05:07;;;;;;;;;;;;;;;7.20;100.00;92554.94;10539967;27;5460;-69
2023/11/05 03:10:10;;;;;;;;;;;;;;;7.08;100.00;92545.00;10561029;27;2608;-71
2023/11/05 03:15:12;;;;;;;;;;;;;;;7.02;100.00;92533.75;10563096;27;2752;-71
2023/11/05 03:20:15;;;;;;;;;;;;;;;6.93;100.00;92533.03;10569439;27;2573;-71
2023/11/05 03:25:17;;;;;;;;;;;;;;;6.75;100.00;92531.66;10555368;27;2677;-74
2023/11/05 03:30:19;;;;;;;;;;;;;;;6.72;100.00;92540.31;10538410;27;2566;-71
2023/11/05 03:35:22;;;;;;;;;;;;;;;6.60;100.00;92533.03;10558448;27;2633;-71
2023/11/05 03:40:25;;;;;;;;;;;;;;;6.58;100.00;92534.47;10559592;27;2644;-70
2023/11/05 03:45:27;;;;;;;;;;;;;;;6.58;100.00;92526.47;10558867;27;2545;-70
2023/11/05 03:50:30;;;;;;;;;;;;;;;6.50;100.00;92520.88;10565368;27;2627;-71
2023/11/05 03:55:32;;;;;;;;;;;;;;;6.50;100.00;92517.44;10557524;27;2600;-74
2023/11/05 04:00:35;;;;;;;;;;;;;;;6.55;100.00;92509.19;10566119;27;2787;-77
2023/11/05 04:05:37;;;;;;;;;;;;;;;6.48;100.00;92499.06;10561525;28;5221;-76
2023/11/05 04:10:40;;;;;;;;;;;;;;;6.49;100.00;92483.84;10556345;28;2779;-70
2023/11/05 04:15:42;;;;;;;;;;;;;;;6.49;100.00;92478.53;10555994;28;2748;-71
2023/11/05 04:20:45;;;;;;;;;;;;;;;6.44;100.00;92474.16;10561682;28;2678;-72
2023/11/05 04:25:47;;;;;;;;;;;;;;;6.28;100.00;92470.53;10557540;28;2719;-70
2023/11/05 04:30:50;;;;;;;;;;;;;;;6.16;100.00;92465.13;10559836;28;2614;-70
2023/11/05 04:35:52;;;;;;;;;;;;;;;6.15;100.00;92459.03;10561311;28;6501;-69
2023/11/05 04:40:55;;;;;;;;;;;;;;;6.15;100.00;92452.91;10559484;27;5439;-68
2023/11/05 04:45:57;;;;;;;;;;;;;;;6.20;100.00;92450.03;10564909;28;3701;-71
2023/11/05 04:51:00;;;;;;;;;;;;;;;6.24;100.00;92445.63;10562260;28;5378;-69
2023/11/05 04:56:02;;;;;;;;;;;;;;;6.25;100.00;92433.84;10569898;28;2687;-70
2023/11/05 05:01:05;;;;;;;;;;;;;;;6.31;100.00;92437.88;10572327;27;2668;-71
2023/11/05 05:06:07;;;;;;;;;;;;;;;6.22;100.00;92423.81;10568505;27;2601;-70
2023/11/05 05:11:10;;;;;;;;;;;;;;;6.22;100.00;92424.59;10569951;27;5228;-71
2023/11/05 05:16:12;;;;;;;;;;;;;;;6.09;100.00;92422.22;10573849;27;2601;-72
2023/11/05 05:21:15;;;;;;;;;;;;;;;6.08;100.00;92421.44;10562012;27;2593;-71
2023/11/05 05:26:18;;;;;;;;;;;;;;;6.03;100.00;92428.84;10570750;27;2588;-70
2023/11/05 05:31:22;;;;;;;;;;;;;;;5.97;100.00;92420.25;10561351;27;2585;-73
2023/11/05 05:36:24;;;;;;;;;;;;;;;6.06;100.00;92444.22;10569985;27;2638;-72
2023/11/05 05:41:27;;;;;;;;;;;;;;;6.24;100.00;92445.63;10566312;27;2662;-70
2023/11/05 05:46:29;;;;;;;;;;;;;;;6.29;100.00;92447.28;10569202;27;5136;-70
2023/11/05 05:51:32;;;;;;;;;;;;;;;6.36;100.00;92427.00;10570018;27;2607;-70
2023/11/05 05:56:34;;;;;;;;;;;;;;;6.18;100.00;92439.72;10568407;27;2607;-72
2023/11/05 06:01:37;;;;;;;;;;;;;;;6.33;100.00;92424.97;10559405;27;2642;-71
2023/11/05 06:06:39;;;;;;;;;;;;;;;6.47;100.00;92438.81;10562770;27;2631;-72
2023/11/05 06:11:42;;;;;;;;;;;;;;;6.61;100.00;92440.41;10561166;27;2675;-73
2023/11/05 06:16:45;;;;;;;;;;;;;;;6.73;100.00;92435.88;10563598;27;2606;-73
2023/11/05 06:21:47;;;;;;;;;;;;;;;6.80;100.00;92443.34;10563823;27;2623;-70
2023/11/05 06:26:49;;;;;;;;;;;;;;;6.80;100.00;92445.22;10568786;27;2890;-71
2023/11/05 06:31:52;;;;;;;;;;;;;;;6.82;100.00;92430.44;10564418;27;2591;-71
2023/11/05 06:36:54;;;;;;;;;;;;;;;6.89;100.00;92438.69;10566238;27;2604;-73
2023/11/05 06:41:57;;;;;;;;;;;;;;;7.01;100.00;92430.69;10560450;27;2703;-70
2023/11/05 06:46:59;;;;;;;;;;;;;;;7.06;100.00;92424.34;10566392;27;5280;-72
2023/11/05 06:52:02;;;;;;;;;;;;;;;7.09;100.00;92428.25;10567552;27;2708;-71
2023/11/05 06:57:04;;;;;;;;;;;;;;;7.16;100.00;92463.22;10565210;27;2596;-70
2023/11/05 07:02:09;;;;;;;;;;;;;;;7.40;100.00;92473.13;10566090;27;2615;-71
2023/11/05 07:07:12;;;;;;;;;;;;;;;7.56;100.00;92493.50;10562422;27;2719;-71
2023/11/05 07:12:15;;;;;;;;;;;;;;;7.62;100.00;92490.59;10559419;27;2549;-71
2023/11/05 07:17:17;;;;;;;;;;;;;;;7.73;100.00;92502.41;10565447;27;2630;-70
2023/11/05 07:22:19;;;;;;;;;;;;;;;7.90;100.00;92509.44;10571826;27;2556;-77
2023/11/05 07:27:22;;;;;;;;;;;;;;;8.07;100.00;92511.84;10561911;27;2602;-77
2023/11/05 07:32:24;;;;;;;;;;;;;;;8.47;100.00;92522.63;10567187;27;2616;-75
2023/11/05 07:37:27;;;;;;;;;;;;;;;8.78;100.00;92505.91;10555277;27;2729;-71
2023/11/05 07:42:30;;;;;;;;;;;;;;;8.69;100.00;92541.97;10555112;27;4999;-71
2023/11/05 07:47:32;;;;;;;;;;;;;;;8.75;100.00;92545.97;10561504;27;2604;-72
2023/11/05 07:52:35;;;;;;;;;;;;;;;8.92;100.00;92551.03;10562428;27;2556;-70
2023/11/05 07:57:38;;;;;;;;;;;;;;;9.33;100.00;92544.44;10563544;27;2664;-72
2023/11/05 08:02:40;;;;;;;;;;;;;;;10.11;100.00;92537.53;10547883;27;2588;-74
2023/11/05 08:07:44;;;;;;;;;;;;;;;10.33;100.00;92540.72;10561126;27;2602;-71
2023/11/05 08:12:47;;;;;;;;;;;;;;;10.05;100.00;92560.38;10556504;28;2643;-71
2023/11/05 08:17:49;;;;;;;;;;;;;;;9.86;100.00;92584.44;10557287;28;2566;-71
2023/11/05 08:22:52;;;;;;;;;;;;;;;9.90;100.00;92588.00;10556273;28;2683;-70
2023/11/05 08:27:54;;;;;;;;;;;;;;;9.83;100.00;92590.53;10555735;28;2608;-71
2023/11/05 08:32:57;;;;;;;;;;;;;;;9.99;100.00;92583.25;10565083;27;2596;-70
2023/11/05 08:37:59;;;;;;;;;;;;;;;10.27;100.00;92586.63;10559369;27;2544;-71
2023/11/05 08:43:02;;;;;;;;;;;;;;;10.42;100.00;92563.56;10566995;27;4867;-73
2023/11/05 08:48:05;;;;;;;;;;;;;;;10.74;100.00;92558.09;10565624;27;2668;-72
2023/11/05 08:53:07;;;;;;;;;;;;;;;11.26;100.00;92563.00;10561610;27;2564;-73
2023/11/05 08:58:10;;;;;;;;;;;;;;;11.42;100.00;92564.78;10565362;27;2593;-72
2023/11/05 09:03:12;;;;;;;;;;;;;;;11.61;100.00;92562.06;10565730;27;2583;-71
2023/11/05 09:08:15;;;;;;;;;;;;;;;11.90;100.00;92574.91;10561168;27;2571;-73
2023/11/05 09:13:19;;;;;;;;;;;;;;;11.64;100.00;92570.22;10563323;27;2719;-75
2023/11/05 09:18:22;;;;;;;;;;;;;;;11.80;100.00;92588.16;10565002;27;2701;-75
2023/11/05 09:23:24;;;;;;;;;;;;;;;11.85;100.00;92612.88;10566663;27;3081;-71
2023/11/05 09:28:27;;;;;;;;;;;;;;;12.09;100.00;92622.53;10564454;27;2663;-78
2023/11/05 09:33:29;;;;;;;;;;;;;;;12.16;100.00;92646.09;10562939;27;2592;-72
2023/11/05 09:38:33;;;;;;;;;;;;;;;12.15;100.00;92652.59;10568217;27;2624;-74
2023/11/05 09:43:35;;;;;;;;;;;;;;;12.36;100.00;92673.75;10559610;27;4767;-71
2023/11/05 09:48:38;;;;;;;;;;;;;;;12.81;100.00;92685.63;10566441;27;2577;-73
2023/11/05 09:53:40;;;;;;;;;;;;;;;12.94;100.00;92695.84;10562601;27;2723;-72
2023/11/05 09:58:42;;;;;;;;;;;;;;;12.89;100.00;92695.34;10563734;27;2683;-73
2023/11/05 10:03:46;;;;;;;;;;;;;;;12.77;100.00;92704.41;10562068;27;2581;-74
2023/11/05 10:08:52;;;;;;;;;;;;;;;12.39;100.00;92746.53;10559633;27;2770;-72
2023/11/05 10:13:54;;;;;;;;;;;;;;;11.70;100.00;92766.31;10560292;27;2626;-75
2023/11/05 10:18:57;;;;;;;;;;;;;;;11.27;100.00;92784.25;10559708;27;2590;-72
2023/11/05 10:24:00;;;;;;;;;;;;;;;10.81;100.00;92786.63;10561817;27;2650;-74
2023/11/05 10:29:02;;;;;;;;;;;;;;;10.68;100.00;92831.59;10558898;27;2612;-73
2023/11/05 10:34:05;;;;;;;;;;;;;;;10.22;100.00;92843.78;10545233;27;2585;-74
2023/11/05 10:39:10;;;;;;;;;;;;;;;9.64;100.00;92849.44;10560617;27;2556;-77
2023/11/05 10:44:13;;;;;;;;;;;;;;;9.43;100.00;92875.63;10561943;27;4859;-71
2023/11/05 10:49:15;;;;;;;;;;;;;;;9.15;100.00;92870.13;10564592;27;2615;-70
2023/11/05 10:54:18;;;;;;;;;;;;;;;8.86;100.00;92904.06;10555495;27;2577;-71
2023/11/05 10:59:20;;;;;;;;;;;;;;;8.90;100.00;92872.03;10567799;27;2594;-71
2023/11/05 11:04:23;;;;;;;;;;;;;;;9.30;100.00;92898.97;10556916;27;2655;-71
2023/11/05 11:09:27;;;;;;;;;;;;;;;9.35;100.00;92876.50;10561785;27;2607;-70
2023/11/05 11:14:29;;;;;;;;;;;;;;;9.41;100.00;92899.28;10555054;27;2614;-70
2023/11/05 11:19:32;;;;;;;;;;;;;;;9.41;100.00;92875.16;10568026;27;2612;-72
2023/11/05 11:24:34;;;;;;;;;;;;;;;9.42;100.00;92884.78;10555061;27;2715;-75
2023/11/05 11:29:37;;;;;;;;;;;;;;;9.67;100.00;92882.84;10558266;27;2685;-72
2023/11/05 11:34:40;;;;;;;;;;;;;;;9.85;100.00;92888.72;10551975;27;2508;-71
2023/11/05 11:39:42;;;;;;;;;;;;;;;9.87;100.00;92895.34;10557598;27;2794;-72
2023/11/05 11:44:46;;;;;;;;;;;;;;;9.93;100.00;92882.47;10551959;27;4772;-72
2023/11/05 11:49:48;;;;;;;;;;;;;;;10.00;100.00;92904.16;10556109;27;2554;-75
2023/11/05 11:54:51;;;;;;;;;;;;;;;10.06;100.00;92912.75;10553673;27;2701;-76
2023/11/05 11:59:53;;;;;;;;;;;;;;;10.13;100.00;92934.41;10547707;27;2632;-72
2023/11/05 12:04:57;;;;;;;;;;;;;;;9.96;100.00;92951.56;10557509;27;2595;-71
2023/11/05 12:09:59;;;;;;;;;;;;;;;9.66;100.00;92959.84;10558207;28;2558;-71
2023/11/05 12:15:03;;;;;;;;;;;;;;;9.26;100.00;92958.94;10550489;28;2748;-72
2023/11/05 12:20:06;;;;;;;;;;;;;;;9.29;100.00;92966.28;10560722;28;2634;-72
2023/11/05 12:25:09;;;;;;;;;;;;;;;9.52;100.00;92945.22;10564960;28;2597;-70
2023/11/05 12:30:11;;;;;;;;;;;;;;;9.94;100.00;92953.78;10561017;28;2623;-70
2023/11/05 12:35:14;;;;;;;;;;;;;;;10.13;100.00;92955.88;10556337;28;2561;-71
2023/11/05 12:40:16;;;;;;;;;;;;;;;10.51;100.00;92945.50;10557874;28;2579;-70
2023/11/05 12:45:19;;;;;;;;;;;;;;;10.72;100.00;92948.00;10554321;28;4889;-71
2023/11/05 12:50:23;;;;;;;;;;;;;;;10.98;100.00;92969.03;10565208;28;2582;-72
2023/11/05 12:55:25;;;;;;;;;;;;;;;11.03;100.00;92959.94;10557173;28;2802;-71
2023/11/05 13:00:28;;;;;;;;;;;;;;;11.05;100.00;92974.59;10566725;28;2582;-71
2023/11/05 13:05:31;;;;;;;;;;;;;;;11.13;100.00;92964.81;10560395;28;2928;-73
2023/11/05 13:10:35;;;;;;;;;;;;;;;11.32;100.00;92973.00;10553434;28;2826;-70
2023/11/05 13:15:39;;;;;;;;;;;;;;;11.35;100.00;92953.47;10553622;28;2618;-70
2023/11/05 13:20:41;;;;;;;;;;;;;;;11.38;100.00;92984.25;10563768;27;2608;-71
2023/11/05 13:25:44;;;;;;;;;;;;;;;11.47;100.00;92978.72;10562761;27;2597;-72
2023/11/05 13:30:47;;;;;;;;;;;;;;;11.44;100.00;93000.94;10573044;27;2555;-72
2023/11/05 13:35:49;;;;;;;;;;;;;;;11.45;100.00;93007.88;10565147;27;2553;-72
2023/11/05 13:40:52;;;;;;;;;;;;;;;11.42;100.00;93003.19;10563276;27;2625;-72
2023/11/05 13:45:55;;;;;;;;;;;;;;;11.44;100.00;93011.69;10568969;27;1872;-73
2023/11/05 13:50:58;;;;;;;;;;;;;;;11.34;100.00;93008.38;10564556;28;1783;-72
2023/11/05 13:56:01;;;;;;;;;;;;;;;11.25;100.00;93037.34;10561703;28;1999;-73
2023/11/05 14:01:04;;;;;;;;;;;;;;;11.19;100.00;93022.56;10563288;27;1658;-72
2023/11/05 14:06:06;;;;;;;;;;;;;;;11.24;100.00;93065.34;10568343;27;1701;-71
2023/11/05 14:11:09;;;;;;;;;;;;;;;11.12;100.00;93068.09;10564200;28;1709;-73
2023/11/05 14:16:11;;;;;;;;;;;;;;;11.27;100.00;93078.13;10565592;28;1906;-72
2023/11/05 14:21:17;;;;;;;;;;;;;;;11.45;100.00;93077.78;10563731;28;1603;-68
2023/11/05 14:26:20;;;;;;;;;;;;;;;11.50;100.00;93102.53;10570705;28;1296;-70
2023/11/05 14:31:26;;;;;;;;;;;;;;;11.49;100.00;93105.59;10554116;28;1489;-69
2023/11/05 14:36:29;;;;;;;;;;;;;;;11.52;100.00;93111.06;10562944;27;2303;-68
2023/11/05 14:41:34;;;;;;;;;;;;;;;11.68;100.00;93100.31;10567873;27;2648;-68
2023/11/05 14:46:37;;;;;;;;;;;;;;;11.65;100.00;93152.16;10557369;27;4862;-68
2023/11/05 14:51:39;;;;;;;;;;;;;;;11.74;100.00;93168.13;10553278;27;2540;-71
2023/11/05 14:56:43;;;;;;;;;;;;;;;11.88;100.00;93182.78;10536978;27;2690;-74
2023/11/05 15:01:45;;;;;;;;;;;;;;;11.68;100.00;93204.50;10564837;27;2049;-71
2023/11/05 15:06:48;;;;;;;;;;;;;;;11.54;100.00;93211.03;10559753;28;1505;-72
2023/11/05 15:11:56;;;;;;;;;;;;;;;11.35;100.00;93240.47;10557298;28;1557;-69
2023/11/05 15:17:00;;;;;;;;;;;;;;;11.19;100.00;93236.88;10566789;28;2011;-75
2023/11/05 15:22:03;;;;;;;;;;;;;;;11.01;100.00;93247.91;10562749;28;2648;-77
2023/11/05 15:27:06;;;;;;;;;;;;;;;10.83;100.00;93257.31;10565400;28;1488;-73
2023/11/05 15:32:09;;;;;;;;;;;;;;;10.71;100.00;93233.91;10562993;28;1588;-70
2023/11/05 15:37:11;;;;;;;;;;;;;;;10.60;100.00;93273.09;10563705;27;1895;-70
2023/11/05 15:42:13;;;;;;;;;;;;;;;10.47;100.00;93292.97;10563633;28;5339;-72
2023/11/05 15:47:16;;;;;;;;;;;;;;;10.41;100.00;93260.19;10562911;28;1596;-71
2023/11/05 15:52:18;;;;;;;;;;;;;;;10.42;100.00;93285.91;10556829;28;1743;-70
2023/11/05 15:57:21;;;;;;;;;;;;;;;10.28;100.00;93302.34;10560601;28;1902;-69
2023/11/05 16:02:23;;;;;;;;;;;;;;;10.21;100.00;93320.84;10560821;28;2999;-72
2023/11/05 16:07:28;;;;;;;;;;;;;;;10.14;100.00;93319.81;10564536;27;1464;-74
2023/11/05 16:12:30;;;;;;;;;;;;;;;9.96;100.00;93330.72;10558856;28;1571;-71
2023/11/05 16:17:33;;;;;;;;;;;;;;;9.90;100.00;93333.91;10559551;28;1993;-72
2023/11/05 16:22:36;;;;;;;;;;;;;;;9.80;100.00;93345.03;10561893;28;1520;-69
2023/11/05 16:27:39;;;;;;;;;;;;;;;9.69;100.00;93356.19;10559906;28;1563;-69
2023/11/05 16:32:43;;;;;;;;;;;;;;;9.81;100.00;93363.50;10557240;28;1499;-71
2023/11/05 16:37:46;;;;;;;;;;;;;;;9.79;100.00;93356.88;10563356;28;1930;-75
2023/11/05 16:42:49;;;;;;;;;;;;;;;9.85;100.00;93385.09;10566872;28;4911;-69
2023/11/05 16:47:51;;;;;;;;;;;;;;;9.76;100.00;93387.84;10563141;28;1359;-71
2023/11/05 16:52:54;;;;;;;;;;;;;;;9.70;100.00;93400.66;10560378;28;1539;-72
2023/11/05 16:57:57;;;;;;;;;;;;;;;9.68;100.00;93412.84;10567177;27;2576;-70
2023/11/05 17:03:02;;;;;;;;;;;;;;;9.67;100.00;93428.16;10561264;27;2635;-70
2023/11/05 17:08:05;;;;;;;;;;;;;;;9.62;100.00;93431.00;10548483;27;2620;-71
2023/11/05 17:13:07;;;;;;;;;;;;;;;9.62;100.00;93460.53;10557029;27;2624;-71
2023/11/05 17:18:10;;;;;;;;;;;;;;;9.54;100.00;93524.91;10563932;27;2664;-71
2023/11/05 17:23:13;;;;;;;;;;;;;;;9.55;100.00;93540.69;10568818;28;2012;-72
2023/11/05 17:28:17;;;;;;;;;;;;;;;9.51;100.00;93589.94;10563769;28;1583;-71
2023/11/05 17:33:23;;;;;;;;;;;;;;;9.48;100.00;93577.97;10566164;28;1545;-70
2023/11/05 17:38:26;;;;;;;;;;;;;;;9.39;100.00;93606.66;10564545;27;2039;-70
2023/11/05 17:43:28;;;;;;;;;;;;;;;9.40;100.00;93616.28;10569280;28;4784;-69
2023/11/05 17:48:31;;;;;;;;;;;;;;;9.37;100.00;93616.94;10569475;28;1460;-71
2023/11/05 17:53:36;;;;;;;;;;;;;;;9.31;100.00;93645.00;10572439;28;2316;-72
2023/11/05 17:58:43;;;;;;;;;;;;;;;9.31;100.00;93661.09;10562113;28;1909;-71
2023/11/05 18:03:46;;;;;;;;;;;;;;;9.28;100.00;93672.44;10568754;27;1428;-73
2023/11/05 18:08:49;;;;;;;;;;;;;;;9.20;100.00;93672.13;10563660;28;1569;-71
2023/11/05 18:13:52;;;;;;;;;;;;;;;9.28;100.00;93705.41;10565980;28;1945;-71
2023/11/05 18:18:54;;;;;;;;;;;;;;;9.30;100.00;93705.91;10560051;28;2041;-71
2023/11/05 18:23:57;;;;;;;;;;;;;;;9.29;100.00;93727.63;10565841;28;1560;-71
2023/11/05 18:29:00;;;;;;;;;;;;;;;9.33;100.00;93734.75;10567456;28;1539;-69
2023/11/05 18:34:09;;;;;;;;;;;;;;;9.25;100.00;93758.88;10568251;28;1471;-70
2023/11/05 18:39:12;;;;;;;;;;;;;;;9.30;100.00;93782.84;10570894;28;1984;-70
2023/11/05 18:44:16;;;;;;;;;;;;;;;9.39;100.00;93791.69;10560176;28;5403;-68
2023/11/05 18:49:19;;;;;;;;;;;;;;;9.34;100.00;93810.59;10563241;27;2213;-71
2023/11/05 18:54:21;;;;;;;;;;;;;;;9.29;100.00;93821.47;10571982;27;1646;-71
2023/11/05 18:59:24;;;;;;;;;;;;;;;9.27;100.00;93834.41;10568653;27;1901;-70
2023/11/05 19:04:29;;;;;;;;;;;;;;;9.23;100.00;93847.66;10565400;27;1705;-71
2023/11/05 19:09:32;;;;;;;;;;;;;;;9.26;100.00;93889.13;10567908;28;1764;-73
2023/11/05 19:14:34;;;;;;;;;;;;;;;9.22;100.00;93897.00;10568323;28;1479;-74
2023/11/05 19:19:37;;;;;;;;;;;;;;;9.18;100.00;93926.34;10569286;27;1906;-71
2023/11/05 19:24:40;;;;;;;;;;;;;;;9.19;100.00;93937.84;10567890;27;1491;-70
2023/11/05 19:29:43;;;;;;;;;;;;;;;9.18;100.00;93955.81;10571675;27;1481;-71
2023/11/05 19:34:46;;;;;;;;;;;;;;;9.07;100.00;93967.13;10568888;27;1910;-71
2023/11/05 19:39:49;;;;;;;;;;;;;;;9.07;100.00;93992.03;10563730;27;1464;-69
2023/11/05 19:44:51;;;;;;;;;;;;;;;9.03;100.00;94009.81;10561015;28;4940;-74
2023/11/05 19:49:53;;;;;;;;;;;;;;;8.82;100.00;94024.81;10565585;27;1583;-76
2023/11/05 19:54:56;;;;;;;;;;;;;;;8.86;100.00;94015.88;10571083;27;1938;-76
2023/11/05 19:59:59;;;;;;;;;;;;;;;8.78;100.00;94042.56;10568705;27;1587;-75
2023/11/05 20:05:01;;;;;;;;;;;;;;;8.79;100.00;94071.75;10569589;28;1596;-77
2023/11/05 20:10:05;;;;;;;;;;;;;;;8.76;100.00;94068.88;10560243;28;2665;-75
2023/11/05 20:15:08;;;;;;;;;;;;;;;8.60;100.00;94098.72;10568351;28;2481;-76
2023/11/05 20:20:11;;;;;;;;;;;;;;;8.64;100.00;94059.50;10573392;28;2509;-77
2023/11/05 20:25:16;;;;;;;;;;;;;;;8.63;100.00;94078.56;10561029;28;2688;-76
2023/11/05 20:30:19;;;;;;;;;;;;;;;8.53;100.00;94087.63;10567212;27;2562;-76
2023/11/05 20:35:22;;;;;;;;;;;;;;;8.53;100.00;94079.59;10571829;27;2691;-76
2023/11/05 20:40:25;;;;;;;;;;;;;;;8.52;100.00;94087.91;10572543;27;3104;-77
2023/11/05 20:45:28;;;;;;;;;;;;;;;8.47;100.00;94098.75;10575103;27;2665;-75
2023/11/05 20:50:30;;;;;;;;;;;;;;;8.42;100.00;94107.66;10569646;27;2622;-74
2023/11/05 20:55:36;;;;;;;;;;;;;;;8.36;100.00;94135.66;10564643;27;2616;-76
2023/11/05 21:00:39;;;;;;;;;;;;;;;8.38;100.00;94117.38;10570732;27;2567;-73
2023/11/05 21:05:41;;;;;;;;;;;;;;;8.44;100.00;94132.25;10575196;27;2546;-81
2023/11/05 21:10:45;;;;;;;;;;;;;;;8.45;100.00;94120.44;10550280;27;2655;-74
2023/11/05 21:15:57;;;;;;;;;;;;;;;8.41;100.00;94148.13;10568692;27;2564;-76
2023/11/05 21:21:00;;;;;;;;;;;;;;;8.29;100.00;94162.78;10569371;27;2962;-75
2023/11/05 21:26:02;;;;;;;;;;;;;;;8.24;100.00;94162.88;10571361;27;2679;-74
2023/11/05 21:31:05;;;;;;;;;;;;;;;8.13;100.00;94172.97;10571341;27;2701;-75
2023/11/05 21:36:07;;;;;;;;;;;;;;;8.15;100.00;94187.97;10568570;27;2691;-75
2023/11/05 21:41:11;;;;;;;;;;;;;;;8.09;100.00;94193.41;10554136;27;2797;-75
2023/11/05 21:46:14;;;;;;;;;;;;;;;8.10;100.00;94208.38;10567981;27;2604;-75
2023/11/05 21:51:16;;;;;;;;;;;;;;;7.99;100.00;94216.88;10549785;27;2701;-75
2023/11/05 21:56:19;;;;;;;;;;;;;;;7.92;100.00;94217.25;10562481;27;2648;-75
2023/11/05 22:01:22;;;;;;;;;;;;;;;7.85;100.00;94228.34;10562832;27;2669;-74
2023/11/05 22:06:24;;;;;;;;;;;;;;;7.75;100.00;94233.84;10566127;27;2697;-73
2023/11/05 22:11:27;;;;;;;;;;;;;;;7.68;100.00;94244.16;10571096;27;2631;-75
2023/11/05 22:16:30;;;;;;;;;;;;;;;7.71;100.00;94245.47;10550694;27;2582;-75
2023/11/05 22:21:33;;;;;;;;;;;;;;;7.72;100.00;94255.84;10574481;27;2569;-74
2023/11/05 22:26:35;;;;;;;;;;;;;;;7.60;100.00;94252.84;10567544;27;2723;-74
2023/11/05 22:31:38;;;;;;;;;;;;;;;7.56;100.00;94260.63;10570023;27;2641;-75
2023/11/05 22:36:41;;;;;;;;;;;;;;;7.49;100.00;94262.88;10565132;27;2581;-73
2023/11/05 22:41:43;;;;;;;;;;;;;;;7.57;100.00;94270.28;10560849;27;2616;-74
2023/11/05 22:46:45;;;;;;;;;;;;;;;7.61;100.00;94285.72;10566493;27;4877;-75
2023/11/05 22:51:48;;;;;;;;;;;;;;;7.70;100.00;94297.34;10565493;27;2764;-73
2023/11/05 22:56:51;;;;;;;;;;;;;;;7.65;100.00;94289.41;10547314;27;2620;-75
2023/11/05 23:01:53;;;;;;;;;;;;;;;7.63;100.00;94304.94;10564111;27;2553;-75
2023/11/05 23:06:56;;;;;;;;;;;;;;;7.64;100.00;94314.56;10566111;27;2670;-74
2023/11/05 23:11:59;;;;;;;;;;;;;;;7.67;100.00;94322.78;10565676;27;2619;-74
2023/11/05 23:17:02;;;;;;;;;;;;;;;7.75;100.00;94324.00;10567139;27;2589;-74
2023/11/05 23:22:04;;;;;;;;;;;;;;;7.72;100.00;94324.59;10570459;27;2772;-72
2023/11/05 23:27:07;;;;;;;;;;;;;;;7.75;100.00;94337.38;10567080;27;2618;-73
2023/11/05 23:32:10;;;;;;;;;;;;;;;7.65;100.00;94332.22;10571492;27;2628;-75
2023/11/05 23:37:12;;;;;;;;;;;;;;;7.69;100.00;94335.88;10567902;27;2611;-73
2023/11/05 23:42:16;;;;;;;;;;;;;;;7.73;100.00;94342.25;10563978;27;4954;-74
2023/11/05 23:47:19;;;;;;;;;;;;;;;7.91;100.00;94351.34;10561129;27;2612;-74
2023/11/05 23:52:22;;;;;;;;;;;;;;;8.07;100.00;94347.31;10574474;27;2633;-72
2023/11/05 23:57:24;;;;;;;;;;;;;;;8.03;100.00;94354.38;10564318;27;2597;-74
